sensor_id;sensor_type;location;lat;lon;timestamp;temperature;humidity
32215;DHT22;18708;53.124;23.190;2023-03-21T00:00:43;9.70;99.90
32215;DHT22;18708;53.124;23.190;2023-03-21T00:03:09;9.70;99.90
32215;DHT22;18708;53.124;23.190;2023-03-21T00:05:42;9.60;99.90
32215;DHT22;18708;53.124;23.190;2023-03-21T00:08:10;9.70;99.90
32215;DHT22;18708;53.124;23.190;2023-03-21T00:10:35;9.70;99.90
32215;DHT22;18708;53.124;23.190;2023-03-21T00:13:01;9.70;99.90
32215;DHT22;18708;53.124;23.190;2023-03-21T00:15:27;9.60;99.90
32215;DHT22;18708;53.124;23.190;2023-03-21T00:17:55;9.50;99.90
32215;DHT22;18708;53.124;23.190;2023-03-21T00:20:29;9.50;99.90
32215;DHT22;18708;53.124;23.190;2023-03-21T00:22:55;9.40;99.90
32215;DHT22;18708;53.124;23.190;2023-03-21T00:25:23;9.40;99.90
32215;DHT22;18708;53.124;23.190;2023-03-21T00:27:49;9.30;99.90
32215;DHT22;18708;53.124;23.190;2023-03-21T00:30:15;9.30;99.90
32215;DHT22;18708;53.124;23.190;2023-03-21T00:32:42;9.30;99.90
32215;DHT22;18708;53.124;23.190;2023-03-21T00:35:08;9.30;99.90
32215;DHT22;18708;53.124;23.190;2023-03-21T00:37:34;9.30;99.90
32215;DHT22;18708;53.124;23.190;2023-03-21T00:40:00;9.30;99.90
32215;DHT22;18708;53.124;23.190;2023-03-21T00:42:26;9.20;99.90
32215;DHT22;18708;53.124;23.190;2023-03-21T00:44:52;9.20;99.90
32215;DHT22;18708;53.124;23.190;2023-03-21T00:47:18;9.10;99.90
32215;DHT22;18708;53.124;23.190;2023-03-21T00:49:43;9.00;99.90
32215;DHT22;18708;53.124;23.190;2023-03-21T00:52:10;9.00;99.90
32215;DHT22;18708;53.124;23.190;2023-03-21T00:54:36;8.90;99.90
32215;DHT22;18708;53.124;23.190;2023-03-21T00:57:03;8.80;99.90
32215;DHT22;18708;53.124;23.190;2023-03-21T00:59:29;8.70;99.90
32215;DHT22;18708;53.124;23.190;2023-03-21T01:01:57;8.60;99.90
32215;DHT22;18708;53.124;23.190;2023-03-21T01:04:25;8.50;99.90
32215;DHT22;18708;53.124;23.190;2023-03-21T01:06:51;8.40;99.90
32215;DHT22;18708;53.124;23.190;2023-03-21T01:09:20;8.30;99.90
32215;DHT22;18708;53.124;23.190;2023-03-21T01:11:49;8.20;99.90
32215;DHT22;18708;53.124;23.190;2023-03-21T01:14:18;8.20;89.10
32215;DHT22;18708;53.124;23.190;2023-03-21T01:16:44;8.20;99.90
32215;DHT22;18708;53.124;23.190;2023-03-21T01:19:15;8.20;98.40
32215;DHT22;18708;53.124;23.190;2023-03-21T01:21:43;8.20;99.90
32215;DHT22;18708;53.124;23.190;2023-03-21T01:24:11;8.10;91.70
32215;DHT22;18708;53.124;23.190;2023-03-21T01:26:36;8.10;99.90
32215;DHT22;18708;53.124;23.190;2023-03-21T01:29:03;8.10;99.90
32215;DHT22;18708;53.124;23.190;2023-03-21T01:31:29;8.10;98.30
32215;DHT22;18708;53.124;23.190;2023-03-21T01:33:55;8.10;99.90
32215;DHT22;18708;53.124;23.190;2023-03-21T01:36:23;8.20;99.90
32215;DHT22;18708;53.124;23.190;2023-03-21T01:38:49;8.10;42.50
32215;DHT22;18708;53.124;23.190;2023-03-21T01:43:56;8.10;41.40
32215;DHT22;18708;53.124;23.190;2023-03-21T01:49:14;8.00;1.00
32215;DHT22;18708;53.124;23.190;2023-03-21T01:51:45;8.00;1.00
32215;DHT22;18708;53.124;23.190;2023-03-21T01:54:16;8.10;12.50
32215;DHT22;18708;53.124;23.190;2023-03-21T01:56:44;8.10;1.00
32215;DHT22;18708;53.124;23.190;2023-03-21T01:59:16;8.10;1.00
32215;DHT22;18708;53.124;23.190;2023-03-21T02:01:46;8.10;1.00
32215;DHT22;18708;53.124;23.190;2023-03-21T02:04:13;8.00;1.00
32215;DHT22;18708;53.124;23.190;2023-03-21T02:07:22;7.90;1.00
32215;DHT22;18708;53.124;23.190;2023-03-21T02:09:49;7.90;1.00
32215;DHT22;18708;53.124;23.190;2023-03-21T02:12:15;8.00;1.00
32215;DHT22;18708;53.124;23.190;2023-03-21T02:14:44;8.00;1.00
32215;DHT22;18708;53.124;23.190;2023-03-21T02:28:27;7.80;13.80
32215;DHT22;18708;53.124;23.190;2023-03-21T02:31:21;7.80;46.60
32215;DHT22;18708;53.124;23.190;2023-03-21T02:37:18;7.80;99.90
32215;DHT22;18708;53.124;23.190;2023-03-21T02:39:50;7.70;99.90
32215;DHT22;18708;53.124;23.190;2023-03-21T02:48:11;7.80;92.90
32215;DHT22;18708;53.124;23.190;2023-03-21T02:50:52;7.80;94.00
32215;DHT22;18708;53.124;23.190;2023-03-21T02:53:24;7.90;99.90
32215;DHT22;18708;53.124;23.190;2023-03-21T02:55:51;7.90;88.70
32215;DHT22;18708;53.124;23.190;2023-03-21T02:58:22;7.90;1.00
32215;DHT22;18708;53.124;23.190;2023-03-21T03:00:49;7.90;1.00
32215;DHT22;18708;53.124;23.190;2023-03-21T03:03:20;7.90;1.00
32215;DHT22;18708;53.124;23.190;2023-03-21T03:05:56;7.80;1.00
32215;DHT22;18708;53.124;23.190;2023-03-21T03:11:38;7.80;1.00
32215;DHT22;18708;53.124;23.190;2023-03-21T03:19:28;7.70;1.00
32215;DHT22;18708;53.124;23.190;2023-03-21T03:24:37;7.60;1.00
32215;DHT22;18708;53.124;23.190;2023-03-21T03:29:41;7.50;99.90
32215;DHT22;18708;53.124;23.190;2023-03-21T03:32:10;7.40;99.90
32215;DHT22;18708;53.124;23.190;2023-03-21T03:34:40;7.40;99.90
32215;DHT22;18708;53.124;23.190;2023-03-21T03:37:10;7.40;99.90
32215;DHT22;18708;53.124;23.190;2023-03-21T03:39:46;7.50;99.90
32215;DHT22;18708;53.124;23.190;2023-03-21T03:42:20;7.40;99.90
32215;DHT22;18708;53.124;23.190;2023-03-21T03:44:48;7.40;99.90
32215;DHT22;18708;53.124;23.190;2023-03-21T03:52:56;7.40;99.90
32215;DHT22;18708;53.124;23.190;2023-03-21T03:55:25;7.40;99.90
32215;DHT22;18708;53.124;23.190;2023-03-21T03:57:52;7.40;99.90
32215;DHT22;18708;53.124;23.190;2023-03-21T04:00:19;7.40;99.90
32215;DHT22;18708;53.124;23.190;2023-03-21T04:02:45;7.40;99.90
32215;DHT22;18708;53.124;23.190;2023-03-21T04:05:11;7.40;99.90
32215;DHT22;18708;53.124;23.190;2023-03-21T04:07:37;7.40;99.90
32215;DHT22;18708;53.124;23.190;2023-03-21T04:10:03;7.40;99.90
32215;DHT22;18708;53.124;23.190;2023-03-21T04:12:30;7.50;99.90
32215;DHT22;18708;53.124;23.190;2023-03-21T04:14:58;7.50;99.90
32215;DHT22;18708;53.124;23.190;2023-03-21T04:17:23;7.40;99.90
32215;DHT22;18708;53.124;23.190;2023-03-21T04:19:49;7.40;99.90
32215;DHT22;18708;53.124;23.190;2023-03-21T04:22:16;7.40;99.90
32215;DHT22;18708;53.124;23.190;2023-03-21T04:24:42;7.40;99.90
32215;DHT22;18708;53.124;23.190;2023-03-21T04:27:08;7.30;99.90
32215;DHT22;18708;53.124;23.190;2023-03-21T04:29:34;7.40;99.90
32215;DHT22;18708;53.124;23.190;2023-03-21T04:32:02;7.30;99.90
32215;DHT22;18708;53.124;23.190;2023-03-21T04:34:28;7.20;99.90
32215;DHT22;18708;53.124;23.190;2023-03-21T04:36:54;7.20;99.90
32215;DHT22;18708;53.124;23.190;2023-03-21T04:39:22;7.20;99.90
32215;DHT22;18708;53.124;23.190;2023-03-21T04:41:49;7.10;99.90
32215;DHT22;18708;53.124;23.190;2023-03-21T04:44:15;7.10;99.90
32215;DHT22;18708;53.124;23.190;2023-03-21T04:46:42;7.10;99.90
32215;DHT22;18708;53.124;23.190;2023-03-21T04:49:08;7.10;99.90
32215;DHT22;18708;53.124;23.190;2023-03-21T04:51:35;7.10;99.90
32215;DHT22;18708;53.124;23.190;2023-03-21T04:54:03;7.10;99.90
32215;DHT22;18708;53.124;23.190;2023-03-21T04:56:30;7.10;99.90
32215;DHT22;18708;53.124;23.190;2023-03-21T04:58:58;7.10;99.90
32215;DHT22;18708;53.124;23.190;2023-03-21T05:01:24;7.10;99.90
32215;DHT22;18708;53.124;23.190;2023-03-21T05:03:50;7.20;99.90
32215;DHT22;18708;53.124;23.190;2023-03-21T05:06:16;7.20;99.90
32215;DHT22;18708;53.124;23.190;2023-03-21T05:08:42;7.20;99.90
32215;DHT22;18708;53.124;23.190;2023-03-21T05:11:08;7.30;99.90
32215;DHT22;18708;53.124;23.190;2023-03-21T05:13:33;7.20;99.90
32215;DHT22;18708;53.124;23.190;2023-03-21T05:15:59;7.30;99.90
32215;DHT22;18708;53.124;23.190;2023-03-21T05:18:25;7.30;99.90
32215;DHT22;18708;53.124;23.190;2023-03-21T05:20:52;7.40;99.90
32215;DHT22;18708;53.124;23.190;2023-03-21T05:23:22;7.40;99.90
32215;DHT22;18708;53.124;23.190;2023-03-21T05:25:48;7.40;99.90
32215;DHT22;18708;53.124;23.190;2023-03-21T05:28:14;7.50;99.90
32215;DHT22;18708;53.124;23.190;2023-03-21T05:30:43;7.50;99.90
32215;DHT22;18708;53.124;23.190;2023-03-21T05:33:10;7.40;99.90
32215;DHT22;18708;53.124;23.190;2023-03-21T05:35:36;7.50;99.90
32215;DHT22;18708;53.124;23.190;2023-03-21T05:38:02;7.60;99.90
32215;DHT22;18708;53.124;23.190;2023-03-21T05:40:28;7.60;99.90
32215;DHT22;18708;53.124;23.190;2023-03-21T05:42:53;7.60;99.90
32215;DHT22;18708;53.124;23.190;2023-03-21T05:45:19;7.60;99.90
32215;DHT22;18708;53.124;23.190;2023-03-21T05:47:45;7.70;99.90
32215;DHT22;18708;53.124;23.190;2023-03-21T05:50:11;7.70;99.90
32215;DHT22;18708;53.124;23.190;2023-03-21T05:52:38;7.70;99.90
32215;DHT22;18708;53.124;23.190;2023-03-21T05:55:04;7.70;99.90
32215;DHT22;18708;53.124;23.190;2023-03-21T05:57:30;7.60;99.90
32215;DHT22;18708;53.124;23.190;2023-03-21T05:59:59;7.60;99.90
32215;DHT22;18708;53.124;23.190;2023-03-21T06:02:28;7.60;99.90
32215;DHT22;18708;53.124;23.190;2023-03-21T06:04:53;7.50;99.90
32215;DHT22;18708;53.124;23.190;2023-03-21T06:07:20;7.50;99.90
32215;DHT22;18708;53.124;23.190;2023-03-21T06:09:46;7.40;99.90
32215;DHT22;18708;53.124;23.190;2023-03-21T06:12:12;7.40;99.90
32215;DHT22;18708;53.124;23.190;2023-03-21T06:14:38;7.50;99.90
32215;DHT22;18708;53.124;23.190;2023-03-21T06:17:04;7.40;99.90
32215;DHT22;18708;53.124;23.190;2023-03-21T06:19:30;7.50;99.90
32215;DHT22;18708;53.124;23.190;2023-03-21T06:21:56;7.60;99.90
32215;DHT22;18708;53.124;23.190;2023-03-21T06:24:22;7.60;99.90
32215;DHT22;18708;53.124;23.190;2023-03-21T06:26:47;7.70;99.90
32215;DHT22;18708;53.124;23.190;2023-03-21T06:29:13;7.70;99.90
32215;DHT22;18708;53.124;23.190;2023-03-21T06:31:39;7.70;99.90
32215;DHT22;18708;53.124;23.190;2023-03-21T06:34:05;7.60;99.90
32215;DHT22;18708;53.124;23.190;2023-03-21T06:36:31;7.60;99.90
32215;DHT22;18708;53.124;23.190;2023-03-21T06:38:57;7.60;99.90
32215;DHT22;18708;53.124;23.190;2023-03-21T06:41:23;7.60;99.90
32215;DHT22;18708;53.124;23.190;2023-03-21T06:43:51;7.60;99.90
32215;DHT22;18708;53.124;23.190;2023-03-21T06:46:16;7.60;99.90
32215;DHT22;18708;53.124;23.190;2023-03-21T06:48:42;7.50;99.90
32215;DHT22;18708;53.124;23.190;2023-03-21T06:51:11;7.60;99.90
32215;DHT22;18708;53.124;23.190;2023-03-21T06:53:36;7.50;99.90
32215;DHT22;18708;53.124;23.190;2023-03-21T06:56:02;7.60;99.90
32215;DHT22;18708;53.124;23.190;2023-03-21T06:58:28;7.60;99.90
32215;DHT22;18708;53.124;23.190;2023-03-21T07:00:54;7.60;99.90
32215;DHT22;18708;53.124;23.190;2023-03-21T07:03:22;7.60;99.90
32215;DHT22;18708;53.124;23.190;2023-03-21T07:05:48;7.70;99.90
32215;DHT22;18708;53.124;23.190;2023-03-21T07:08:14;7.70;99.90
32215;DHT22;18708;53.124;23.190;2023-03-21T07:10:43;7.70;99.90
32215;DHT22;18708;53.124;23.190;2023-03-21T07:13:10;7.70;99.90
32215;DHT22;18708;53.124;23.190;2023-03-21T07:15:36;7.70;99.90
32215;DHT22;18708;53.124;23.190;2023-03-21T07:18:05;7.70;99.90
32215;DHT22;18708;53.124;23.190;2023-03-21T07:20:31;7.70;99.90
32215;DHT22;18708;53.124;23.190;2023-03-21T07:22:57;7.70;99.90
32215;DHT22;18708;53.124;23.190;2023-03-21T07:25:23;7.70;99.90
32215;DHT22;18708;53.124;23.190;2023-03-21T07:27:49;7.80;99.90
32215;DHT22;18708;53.124;23.190;2023-03-21T07:30:15;7.70;99.90
32215;DHT22;18708;53.124;23.190;2023-03-21T07:32:44;7.60;61.20
32215;DHT22;18708;53.124;23.190;2023-03-21T07:35:15;7.60;27.00
32215;DHT22;18708;53.124;23.190;2023-03-21T07:37:41;7.60;1.00
32215;DHT22;18708;53.124;23.190;2023-03-21T07:40:09;7.60;1.00
32215;DHT22;18708;53.124;23.190;2023-03-21T07:42:36;7.60;1.00
32215;DHT22;18708;53.124;23.190;2023-03-21T07:45:02;7.60;1.00
32215;DHT22;18708;53.124;23.190;2023-03-21T07:47:30;7.60;1.00
32215;DHT22;18708;53.124;23.190;2023-03-21T07:49:56;7.70;1.00
32215;DHT22;18708;53.124;23.190;2023-03-21T07:52:22;7.70;1.00
32215;DHT22;18708;53.124;23.190;2023-03-21T07:54:47;7.80;1.00
32215;DHT22;18708;53.124;23.190;2023-03-21T07:57:13;7.90;1.00
32215;DHT22;18708;53.124;23.190;2023-03-21T07:59:39;8.00;1.00
32215;DHT22;18708;53.124;23.190;2023-03-21T08:02:04;8.00;1.00
32215;DHT22;18708;53.124;23.190;2023-03-21T08:04:31;8.10;1.00
32215;DHT22;18708;53.124;23.190;2023-03-21T08:06:57;8.20;1.00
32215;DHT22;18708;53.124;23.190;2023-03-21T08:09:22;8.30;1.00
32215;DHT22;18708;53.124;23.190;2023-03-21T08:11:48;8.30;1.00
32215;DHT22;18708;53.124;23.190;2023-03-21T08:14:14;8.40;99.90
32215;DHT22;18708;53.124;23.190;2023-03-21T08:16:40;8.40;99.90
32215;DHT22;18708;53.124;23.190;2023-03-21T08:19:05;8.40;99.90
32215;DHT22;18708;53.124;23.190;2023-03-21T08:21:31;8.40;99.90
32215;DHT22;18708;53.124;23.190;2023-03-21T08:23:56;8.40;99.90
32215;DHT22;18708;53.124;23.190;2023-03-21T08:26:22;8.40;99.90
32215;DHT22;18708;53.124;23.190;2023-03-21T08:28:50;8.40;99.90
32215;DHT22;18708;53.124;23.190;2023-03-21T08:31:15;8.40;99.90
32215;DHT22;18708;53.124;23.190;2023-03-21T08:33:42;8.30;99.40
32215;DHT22;18708;53.124;23.190;2023-03-21T08:36:11;8.30;54.50
32215;DHT22;18708;53.124;23.190;2023-03-21T08:38:36;8.30;1.00
32215;DHT22;18708;53.124;23.190;2023-03-21T08:41:02;8.30;39.70
32215;DHT22;18708;53.124;23.190;2023-03-21T08:43:28;8.40;23.30
32215;DHT22;18708;53.124;23.190;2023-03-21T08:45:55;8.50;85.60
32215;DHT22;18708;53.124;23.190;2023-03-21T08:48:21;8.60;53.60
32215;DHT22;18708;53.124;23.190;2023-03-21T08:50:46;8.60;1.00
32215;DHT22;18708;53.124;23.190;2023-03-21T08:53:12;8.70;1.00
32215;DHT22;18708;53.124;23.190;2023-03-21T08:55:38;8.70;1.00
32215;DHT22;18708;53.124;23.190;2023-03-21T08:58:05;8.70;1.00
32215;DHT22;18708;53.124;23.190;2023-03-21T09:00:31;8.60;1.00
32215;DHT22;18708;53.124;23.190;2023-03-21T09:02:57;8.60;1.00
32215;DHT22;18708;53.124;23.190;2023-03-21T09:05:23;8.60;1.00
32215;DHT22;18708;53.124;23.190;2023-03-21T09:07:51;8.70;1.00
32215;DHT22;18708;53.124;23.190;2023-03-21T09:10:18;8.80;1.00
32215;DHT22;18708;53.124;23.190;2023-03-21T09:12:44;9.00;1.00
32215;DHT22;18708;53.124;23.190;2023-03-21T09:15:11;9.10;99.90
32215;DHT22;18708;53.124;23.190;2023-03-21T09:17:38;9.20;1.00
32215;DHT22;18708;53.124;23.190;2023-03-21T09:20:12;9.10;1.00
32215;DHT22;18708;53.124;23.190;2023-03-21T09:22:49;9.00;1.00
32215;DHT22;18708;53.124;23.190;2023-03-21T09:25:17;9.00;1.00
32215;DHT22;18708;53.124;23.190;2023-03-21T09:27:44;8.90;1.00
32215;DHT22;18708;53.124;23.190;2023-03-21T09:30:12;8.80;99.90
32215;DHT22;18708;53.124;23.190;2023-03-21T09:32:38;8.60;1.00
32215;DHT22;18708;53.124;23.190;2023-03-21T09:35:04;8.60;1.00
32215;DHT22;18708;53.124;23.190;2023-03-21T09:37:30;8.50;1.00
32215;DHT22;18708;53.124;23.190;2023-03-21T09:39:57;8.40;1.00
32215;DHT22;18708;53.124;23.190;2023-03-21T09:42:34;8.50;1.00
32215;DHT22;18708;53.124;23.190;2023-03-21T09:45:21;8.50;1.00
32215;DHT22;18708;53.124;23.190;2023-03-21T09:47:50;8.60;1.00
32215;DHT22;18708;53.124;23.190;2023-03-21T09:50:33;8.70;1.00
32215;DHT22;18708;53.124;23.190;2023-03-21T09:53:08;8.70;1.00
32215;DHT22;18708;53.124;23.190;2023-03-21T09:55:37;8.80;99.90
32215;DHT22;18708;53.124;23.190;2023-03-21T10:00:38;8.70;99.90
32215;DHT22;18708;53.124;23.190;2023-03-21T10:03:22;8.70;99.90
32215;DHT22;18708;53.124;23.190;2023-03-21T10:05:51;8.80;99.90
32215;DHT22;18708;53.124;23.190;2023-03-21T10:08:18;8.90;99.90
32215;DHT22;18708;53.124;23.190;2023-03-21T10:10:49;8.90;99.90
32215;DHT22;18708;53.124;23.190;2023-03-21T10:13:25;8.90;1.00
32215;DHT22;18708;53.124;23.190;2023-03-21T10:15:56;9.00;11.00
32215;DHT22;18708;53.124;23.190;2023-03-21T10:18:26;9.10;99.90
32215;DHT22;18708;53.124;23.190;2023-03-21T10:20:53;9.20;1.00
32215;DHT22;18708;53.124;23.190;2023-03-21T10:23:23;9.20;1.00
32215;DHT22;18708;53.124;23.190;2023-03-21T10:25:56;9.20;1.00
32215;DHT22;18708;53.124;23.190;2023-03-21T10:28:25;9.20;1.00
32215;DHT22;18708;53.124;23.190;2023-03-21T10:31:00;9.20;1.00
32215;DHT22;18708;53.124;23.190;2023-03-21T10:33:47;9.30;1.00
32215;DHT22;18708;53.124;23.190;2023-03-21T10:36:21;9.30;1.00
32215;DHT22;18708;53.124;23.190;2023-03-21T10:38:53;9.30;1.00
32215;DHT22;18708;53.124;23.190;2023-03-21T10:41:19;9.30;1.00
32215;DHT22;18708;53.124;23.190;2023-03-21T10:43:51;9.20;1.00
32215;DHT22;18708;53.124;23.190;2023-03-21T10:46:27;9.20;1.00
32215;DHT22;18708;53.124;23.190;2023-03-21T10:48:53;9.10;1.00
32215;DHT22;18708;53.124;23.190;2023-03-21T10:51:22;9.10;1.00
32215;DHT22;18708;53.124;23.190;2023-03-21T10:53:54;9.10;1.00
32215;DHT22;18708;53.124;23.190;2023-03-21T10:56:28;9.00;1.00
32215;DHT22;18708;53.124;23.190;2023-03-21T10:58:57;9.00;1.00
32215;DHT22;18708;53.124;23.190;2023-03-21T11:01:33;9.00;1.00
32215;DHT22;18708;53.124;23.190;2023-03-21T11:04:09;8.90;1.00
32215;DHT22;18708;53.124;23.190;2023-03-21T11:06:40;8.90;1.00
32215;DHT22;18708;53.124;23.190;2023-03-21T11:11:40;9.00;1.00
32215;DHT22;18708;53.124;23.190;2023-03-21T11:14:19;9.10;99.90
32215;DHT22;18708;53.124;23.190;2023-03-21T11:16:48;9.20;99.90
32215;DHT22;18708;53.124;23.190;2023-03-21T11:19:38;9.30;99.90
32215;DHT22;18708;53.124;23.190;2023-03-21T11:22:06;9.30;1.00
32215;DHT22;18708;53.124;23.190;2023-03-21T11:24:34;9.40;1.00
32215;DHT22;18708;53.124;23.190;2023-03-21T11:27:05;9.50;1.00
32215;DHT22;18708;53.124;23.190;2023-03-21T11:29:37;9.60;1.00
32215;DHT22;18708;53.124;23.190;2023-03-21T11:32:24;9.80;1.00
32215;DHT22;18708;53.124;23.190;2023-03-21T11:34:56;10.00;1.00
32215;DHT22;18708;53.124;23.190;2023-03-21T11:37:44;10.00;1.00
32215;DHT22;18708;53.124;23.190;2023-03-21T11:42:50;12.20;1.00
32215;DHT22;18708;53.124;23.190;2023-03-21T11:45:22;12.70;99.90
32215;DHT22;18708;53.124;23.190;2023-03-21T11:47:49;12.10;1.00
32215;DHT22;18708;53.124;23.190;2023-03-21T11:50:35;11.90;99.90
32215;DHT22;18708;53.124;23.190;2023-03-21T11:53:19;11.60;1.00
32215;DHT22;18708;53.124;23.190;2023-03-21T11:56:15;11.20;1.00
32215;DHT22;18708;53.124;23.190;2023-03-21T11:59:05;10.90;10.80
32215;DHT22;18708;53.124;23.190;2023-03-21T12:07:34;10.40;22.70
32215;DHT22;18708;53.124;23.190;2023-03-21T12:26:25;10.10;25.40
32215;DHT22;18708;53.124;23.190;2023-03-21T12:31:54;10.10;1.00
32215;DHT22;18708;53.124;23.190;2023-03-21T12:39:55;10.40;1.00
32215;DHT22;18708;53.124;23.190;2023-03-21T12:43:03;10.50;1.00
32215;DHT22;18708;53.124;23.190;2023-03-21T12:45:34;10.60;1.00
32215;DHT22;18708;53.124;23.190;2023-03-21T12:48:44;10.70;1.00
32215;DHT22;18708;53.124;23.190;2023-03-21T12:51:14;10.80;1.00
32215;DHT22;18708;53.124;23.190;2023-03-21T12:56:26;10.70;1.00
32215;DHT22;18708;53.124;23.190;2023-03-21T12:59:30;10.70;1.00
32215;DHT22;18708;53.124;23.190;2023-03-21T13:01:57;10.70;1.00
32215;DHT22;18708;53.124;23.190;2023-03-21T13:07:02;10.70;1.00
32215;DHT22;18708;53.124;23.190;2023-03-21T13:09:36;10.70;1.00
32215;DHT22;18708;53.124;23.190;2023-03-21T13:17:49;10.60;1.00
32215;DHT22;18708;53.124;23.190;2023-03-21T13:20:42;10.60;1.00
32215;DHT22;18708;53.124;23.190;2023-03-21T13:23:07;10.70;1.00
32215;DHT22;18708;53.124;23.190;2023-03-21T13:25:41;10.60;1.00
32215;DHT22;18708;53.124;23.190;2023-03-21T13:28:20;10.60;1.00
32215;DHT22;18708;53.124;23.190;2023-03-21T13:30:47;10.50;1.00
32215;DHT22;18708;53.124;23.190;2023-03-21T13:33:35;10.40;1.00
32215;DHT22;18708;53.124;23.190;2023-03-21T13:36:07;10.30;1.00
32215;DHT22;18708;53.124;23.190;2023-03-21T13:38:35;10.20;1.00
32215;DHT22;18708;53.124;23.190;2023-03-21T13:41:18;10.10;1.00
32215;DHT22;18708;53.124;23.190;2023-03-21T13:51:54;10.20;1.00
32215;DHT22;18708;53.124;23.190;2023-03-21T13:54:52;10.20;1.00
32215;DHT22;18708;53.124;23.190;2023-03-21T14:03:07;10.40;1.00
32215;DHT22;18708;53.124;23.190;2023-03-21T14:05:33;10.40;1.00
32215;DHT22;18708;53.124;23.190;2023-03-21T14:08:07;10.40;1.00
32215;DHT22;18708;53.124;23.190;2023-03-21T14:10:44;10.40;1.00
32215;DHT22;18708;53.124;23.190;2023-03-21T14:13:16;10.30;1.00
32215;DHT22;18708;53.124;23.190;2023-03-21T14:15:50;10.30;1.00
32215;DHT22;18708;53.124;23.190;2023-03-21T14:18:21;10.20;1.00
32215;DHT22;18708;53.124;23.190;2023-03-21T14:20:52;10.20;1.00
32215;DHT22;18708;53.124;23.190;2023-03-21T14:23:21;10.10;1.00
32215;DHT22;18708;53.124;23.190;2023-03-21T14:25:48;10.20;1.00
32215;DHT22;18708;53.124;23.190;2023-03-21T14:28:22;10.20;1.00
32215;DHT22;18708;53.124;23.190;2023-03-21T14:30:57;10.20;1.00
32215;DHT22;18708;53.124;23.190;2023-03-21T14:33:31;10.20;1.00
32215;DHT22;18708;53.124;23.190;2023-03-21T14:36:06;10.10;1.00
32215;DHT22;18708;53.124;23.190;2023-03-21T14:38:37;10.00;1.00
32215;DHT22;18708;53.124;23.190;2023-03-21T14:41:04;10.00;1.00
32215;DHT22;18708;53.124;23.190;2023-03-21T14:43:30;9.90;1.00
32215;DHT22;18708;53.124;23.190;2023-03-21T14:45:59;9.90;1.00
32215;DHT22;18708;53.124;23.190;2023-03-21T14:48:30;9.90;1.00
32215;DHT22;18708;53.124;23.190;2023-03-21T14:51:01;9.90;1.00
32215;DHT22;18708;53.124;23.190;2023-03-21T14:53:34;9.90;1.00
32215;DHT22;18708;53.124;23.190;2023-03-21T14:58:41;9.90;1.00
32215;DHT22;18708;53.124;23.190;2023-03-21T15:01:27;9.80;1.00
32215;DHT22;18708;53.124;23.190;2023-03-21T15:03:53;9.80;1.00
32215;DHT22;18708;53.124;23.190;2023-03-21T15:06:19;9.80;1.00
32215;DHT22;18708;53.124;23.190;2023-03-21T15:08:59;9.70;1.00
32215;DHT22;18708;53.124;23.190;2023-03-21T15:11:36;9.70;1.00
32215;DHT22;18708;53.124;23.190;2023-03-21T15:14:07;9.70;1.00
32215;DHT22;18708;53.124;23.190;2023-03-21T15:16:33;9.60;1.00
32215;DHT22;18708;53.124;23.190;2023-03-21T15:19:01;9.60;1.00
32215;DHT22;18708;53.124;23.190;2023-03-21T15:21:34;9.60;1.00
32215;DHT22;18708;53.124;23.190;2023-03-21T15:24:08;9.60;1.00
32215;DHT22;18708;53.124;23.190;2023-03-21T15:26:38;9.50;1.00
32215;DHT22;18708;53.124;23.190;2023-03-21T15:29:05;9.40;1.00
32215;DHT22;18708;53.124;23.190;2023-03-21T15:31:36;9.40;1.00
32215;DHT22;18708;53.124;23.190;2023-03-21T15:34:04;9.50;1.00
32215;DHT22;18708;53.124;23.190;2023-03-21T15:36:44;9.50;1.00
32215;DHT22;18708;53.124;23.190;2023-03-21T15:39:15;9.40;1.00
32215;DHT22;18708;53.124;23.190;2023-03-21T15:41:58;9.40;1.00
32215;DHT22;18708;53.124;23.190;2023-03-21T15:44:26;9.40;1.00
32215;DHT22;18708;53.124;23.190;2023-03-21T15:46:52;9.40;1.00
32215;DHT22;18708;53.124;23.190;2023-03-21T15:49:27;9.40;1.00
32215;DHT22;18708;53.124;23.190;2023-03-21T15:52:17;9.30;1.00
32215;DHT22;18708;53.124;23.190;2023-03-21T15:54:45;9.30;1.00
32215;DHT22;18708;53.124;23.190;2023-03-21T15:57:25;9.30;1.00
32215;DHT22;18708;53.124;23.190;2023-03-21T16:00:20;9.20;1.00
32215;DHT22;18708;53.124;23.190;2023-03-21T16:02:48;9.20;1.00
32215;DHT22;18708;53.124;23.190;2023-03-21T16:05:29;9.20;1.00
32215;DHT22;18708;53.124;23.190;2023-03-21T16:10:30;9.20;1.00
32215;DHT22;18708;53.124;23.190;2023-03-21T16:12:57;9.10;1.00
32215;DHT22;18708;53.124;23.190;2023-03-21T16:15:24;9.10;1.00
32215;DHT22;18708;53.124;23.190;2023-03-21T16:17:53;9.00;1.00
32215;DHT22;18708;53.124;23.190;2023-03-21T16:20:23;9.00;1.00
32215;DHT22;18708;53.124;23.190;2023-03-21T16:22:49;9.00;1.00
32215;DHT22;18708;53.124;23.190;2023-03-21T16:25:15;9.00;1.00
32215;DHT22;18708;53.124;23.190;2023-03-21T16:27:41;8.90;1.00
32215;DHT22;18708;53.124;23.190;2023-03-21T16:30:07;8.90;1.00
32215;DHT22;18708;53.124;23.190;2023-03-21T16:32:36;8.90;1.00
32215;DHT22;18708;53.124;23.190;2023-03-21T16:35:02;8.80;1.00
32215;DHT22;18708;53.124;23.190;2023-03-21T16:37:28;8.80;1.00
32215;DHT22;18708;53.124;23.190;2023-03-21T16:39:54;8.80;1.00
32215;DHT22;18708;53.124;23.190;2023-03-21T16:42:19;8.80;1.00
32215;DHT22;18708;53.124;23.190;2023-03-21T16:44:45;8.70;1.00
32215;DHT22;18708;53.124;23.190;2023-03-21T16:47:16;8.70;1.00
32215;DHT22;18708;53.124;23.190;2023-03-21T16:49:42;8.70;1.00
32215;DHT22;18708;53.124;23.190;2023-03-21T16:52:09;8.60;1.00
32215;DHT22;18708;53.124;23.190;2023-03-21T16:54:36;8.70;1.00
32215;DHT22;18708;53.124;23.190;2023-03-21T16:57:04;8.70;1.00
32215;DHT22;18708;53.124;23.190;2023-03-21T16:59:33;8.70;1.00
32215;DHT22;18708;53.124;23.190;2023-03-21T17:01:59;8.70;1.00
32215;DHT22;18708;53.124;23.190;2023-03-21T17:04:25;8.60;1.00
32215;DHT22;18708;53.124;23.190;2023-03-21T17:06:52;8.70;1.00
32215;DHT22;18708;53.124;23.190;2023-03-21T17:09:21;8.70;1.00
32215;DHT22;18708;53.124;23.190;2023-03-21T17:11:47;8.60;1.00
32215;DHT22;18708;53.124;23.190;2023-03-21T17:14:14;8.60;1.00
32215;DHT22;18708;53.124;23.190;2023-03-21T17:16:45;8.60;1.00
32215;DHT22;18708;53.124;23.190;2023-03-21T17:19:20;8.60;1.00
32215;DHT22;18708;53.124;23.190;2023-03-21T17:21:48;8.50;1.00
32215;DHT22;18708;53.124;23.190;2023-03-21T17:24:13;8.40;1.00
32215;DHT22;18708;53.124;23.190;2023-03-21T17:26:40;8.50;1.00
32215;DHT22;18708;53.124;23.190;2023-03-21T17:29:05;8.50;1.00
32215;DHT22;18708;53.124;23.190;2023-03-21T17:31:34;8.50;1.00
32215;DHT22;18708;53.124;23.190;2023-03-21T17:34:00;8.50;1.00
32215;DHT22;18708;53.124;23.190;2023-03-21T17:36:37;8.40;1.00
32215;DHT22;18708;53.124;23.190;2023-03-21T17:39:05;8.40;1.00
32215;DHT22;18708;53.124;23.190;2023-03-21T17:41:31;8.50;1.00
32215;DHT22;18708;53.124;23.190;2023-03-21T17:43:57;8.40;1.00
32215;DHT22;18708;53.124;23.190;2023-03-21T17:46:24;8.30;1.00